Terminal Aerodrome Forecast
Issued by NWS Los Angeles, CA

Home | Current Version | Previous Version | Text Only | Print | Product List | Glossary On
Versions: 1 2 3 4 5 6 7 8 9 10 11 12 13 14 15 16 17 18
000
FTUS46 KLOX 221100
TAFSMX
TAF
KSMX 221120Z 2212/2312 VRB03KT P6SM SCT150
     FM221300 VRB03KT P6SM BKN006
     FM221700 VRB03KT P6SM SKC
     FM222000 31012G20KT P6SM SKC
     FM230100 32008KT P6SM SKC
     FM230600 VRB03KT P6SM SKC
     FM231000 VRB03KT 5SM BR OVC004=

USA.gov is the U.S. government's official web portal to all federal, state and local government web resources and services.